Mount Crawford, Virginia
Current Conditions -  °F | °C
As of 2:55 PM on Thursday 30 Oct 2014 (Local Time) from KVBW Reporting Station
Overcast Overcast  
Wind Chill: 52°   Ceiling: 4600
Heat Index: 52°   Visibility: 10mi
Dew Point: 36°   Wind: 6mph
Humidity: 55%   Direction: 10°N
Pressure: 30.05"   Gusts: NA
Location:  38.36°N, 78.94°W
Report Text: KVBW 301855Z AUTO 01005KT 10SM OVC046 11/02 A3005 RMK AO2 T01090022
Loading
Personal Weather Stations






























Interactive Weather Map
Tropical Storm Tracking
New forecast layout! Learn more

10-Day Weather Forecast

Advertisements
Track Severe Weather on mobile